sensor_id;sensor_type;location;lat;lon;timestamp;temperature;humidity
25482;DHT22;13395;50.752;4.268;2023-09-19T00:00:06;16.60;99.90
25482;DHT22;13395;50.752;4.268;2023-09-19T00:02:32;16.60;99.90
25482;DHT22;13395;50.752;4.268;2023-09-19T00:04:58;16.60;99.90
25482;DHT22;13395;50.752;4.268;2023-09-19T00:07:24;16.50;99.90
25482;DHT22;13395;50.752;4.268;2023-09-19T00:09:49;16.60;99.90
25482;DHT22;13395;50.752;4.268;2023-09-19T00:12:15;16.70;99.90
25482;DHT22;13395;50.752;4.268;2023-09-19T00:14:40;16.60;99.90
25482;DHT22;13395;50.752;4.268;2023-09-19T00:17:06;16.60;99.90
25482;DHT22;13395;50.752;4.268;2023-09-19T00:19:34;16.50;99.90
25482;DHT22;13395;50.752;4.268;2023-09-19T00:22:00;16.40;99.90
25482;DHT22;13395;50.752;4.268;2023-09-19T00:24:26;16.40;99.90
25482;DHT22;13395;50.752;4.268;2023-09-19T00:26:53;16.50;99.90
25482;DHT22;13395;50.752;4.268;2023-09-19T00:29:21;16.40;99.90
25482;DHT22;13395;50.752;4.268;2023-09-19T00:31:46;16.50;99.90
25482;DHT22;13395;50.752;4.268;2023-09-19T00:34:12;16.40;99.90
25482;DHT22;13395;50.752;4.268;2023-09-19T00:36:39;16.60;99.90
25482;DHT22;13395;50.752;4.268;2023-09-19T00:39:06;16.50;99.90
25482;DHT22;13395;50.752;4.268;2023-09-19T00:41:32;16.50;99.90
25482;DHT22;13395;50.752;4.268;2023-09-19T00:44:01;16.50;99.90
25482;DHT22;13395;50.752;4.268;2023-09-19T00:46:27;16.40;99.90
25482;DHT22;13395;50.752;4.268;2023-09-19T00:48:53;16.40;99.90
25482;DHT22;13395;50.752;4.268;2023-09-19T00:51:20;16.30;99.90
25482;DHT22;13395;50.752;4.268;2023-09-19T00:53:47;16.40;99.90
25482;DHT22;13395;50.752;4.268;2023-09-19T00:56:14;16.40;99.90
25482;DHT22;13395;50.752;4.268;2023-09-19T00:58:40;16.40;99.90
25482;DHT22;13395;50.752;4.268;2023-09-19T01:01:06;16.40;99.90
25482;DHT22;13395;50.752;4.268;2023-09-19T01:03:36;16.40;99.90
25482;DHT22;13395;50.752;4.268;2023-09-19T01:06:02;16.40;99.90
25482;DHT22;13395;50.752;4.268;2023-09-19T01:08:28;16.30;99.90
25482;DHT22;13395;50.752;4.268;2023-09-19T01:16:19;16.20;99.90
25482;DHT22;13395;50.752;4.268;2023-09-19T01:19:14;16.20;99.90
25482;DHT22;13395;50.752;4.268;2023-09-19T01:27:53;16.10;99.90
25482;DHT22;13395;50.752;4.268;2023-09-19T01:30:26;16.10;99.90
25482;DHT22;13395;50.752;4.268;2023-09-19T01:32:54;16.00;99.90
25482;DHT22;13395;50.752;4.268;2023-09-19T01:35:20;16.00;99.90
25482;DHT22;13395;50.752;4.268;2023-09-19T01:37:45;16.00;99.90
25482;DHT22;13395;50.752;4.268;2023-09-19T01:40:17;16.10;99.90
25482;DHT22;13395;50.752;4.268;2023-09-19T01:50:49;16.00;99.90
25482;DHT22;13395;50.752;4.268;2023-09-19T01:53:30;16.00;99.90
25482;DHT22;13395;50.752;4.268;2023-09-19T01:55:59;15.90;99.90
25482;DHT22;13395;50.752;4.268;2023-09-19T01:58:41;16.00;99.90
25482;DHT22;13395;50.752;4.268;2023-09-19T02:01:12;16.10;99.90
25482;DHT22;13395;50.752;4.268;2023-09-19T02:03:41;16.10;99.90
25482;DHT22;13395;50.752;4.268;2023-09-19T02:06:14;16.20;99.90
25482;DHT22;13395;50.752;4.268;2023-09-19T02:08:39;16.10;99.90
25482;DHT22;13395;50.752;4.268;2023-09-19T02:11:05;16.00;99.90
25482;DHT22;13395;50.752;4.268;2023-09-19T02:13:31;16.00;99.90
25482;DHT22;13395;50.752;4.268;2023-09-19T02:15:57;16.00;99.90
25482;DHT22;13395;50.752;4.268;2023-09-19T02:18:23;16.00;99.90
25482;DHT22;13395;50.752;4.268;2023-09-19T02:20:48;16.00;99.90
25482;DHT22;13395;50.752;4.268;2023-09-19T02:23:14;16.00;99.90
25482;DHT22;13395;50.752;4.268;2023-09-19T02:25:41;16.10;99.90
25482;DHT22;13395;50.752;4.268;2023-09-19T02:28:10;16.10;99.90
25482;DHT22;13395;50.752;4.268;2023-09-19T02:30:35;16.10;99.90
25482;DHT22;13395;50.752;4.268;2023-09-19T02:33:02;16.10;99.90
25482;DHT22;13395;50.752;4.268;2023-09-19T02:35:28;16.10;99.90
25482;DHT22;13395;50.752;4.268;2023-09-19T02:37:58;16.10;99.90
25482;DHT22;13395;50.752;4.268;2023-09-19T02:40:23;16.10;99.90
25482;DHT22;13395;50.752;4.268;2023-09-19T02:42:54;16.20;99.90
25482;DHT22;13395;50.752;4.268;2023-09-19T02:45:20;16.20;99.90
25482;DHT22;13395;50.752;4.268;2023-09-19T02:47:46;16.20;99.90
25482;DHT22;13395;50.752;4.268;2023-09-19T02:50:13;16.20;99.90
25482;DHT22;13395;50.752;4.268;2023-09-19T02:52:45;16.20;99.90
25482;DHT22;13395;50.752;4.268;2023-09-19T02:55:12;16.30;99.90
25482;DHT22;13395;50.752;4.268;2023-09-19T02:57:53;16.30;99.90
25482;DHT22;13395;50.752;4.268;2023-09-19T03:00:22;16.30;99.90
25482;DHT22;13395;50.752;4.268;2023-09-19T03:02:54;16.30;99.90
25482;DHT22;13395;50.752;4.268;2023-09-19T03:05:21;16.20;99.90
25482;DHT22;13395;50.752;4.268;2023-09-19T03:07:47;16.10;99.90
25482;DHT22;13395;50.752;4.268;2023-09-19T03:10:17;16.00;99.90
25482;DHT22;13395;50.752;4.268;2023-09-19T03:12:43;16.00;99.90
25482;DHT22;13395;50.752;4.268;2023-09-19T03:15:09;16.00;99.90
25482;DHT22;13395;50.752;4.268;2023-09-19T03:17:35;16.00;99.90
25482;DHT22;13395;50.752;4.268;2023-09-19T03:20:01;16.00;99.90
25482;DHT22;13395;50.752;4.268;2023-09-19T03:22:27;16.00;99.90
25482;DHT22;13395;50.752;4.268;2023-09-19T03:24:53;16.00;99.90
25482;DHT22;13395;50.752;4.268;2023-09-19T03:27:19;16.00;99.90
25482;DHT22;13395;50.752;4.268;2023-09-19T03:29:46;16.00;99.90
25482;DHT22;13395;50.752;4.268;2023-09-19T03:32:12;16.10;99.90
25482;DHT22;13395;50.752;4.268;2023-09-19T03:34:38;16.20;99.90
25482;DHT22;13395;50.752;4.268;2023-09-19T03:37:09;16.20;99.90
25482;DHT22;13395;50.752;4.268;2023-09-19T03:39:35;16.10;99.90
25482;DHT22;13395;50.752;4.268;2023-09-19T03:42:01;16.10;99.90
25482;DHT22;13395;50.752;4.268;2023-09-19T03:44:29;16.10;99.90
25482;DHT22;13395;50.752;4.268;2023-09-19T03:46:56;16.00;99.90
25482;DHT22;13395;50.752;4.268;2023-09-19T03:49:22;15.90;99.90
25482;DHT22;13395;50.752;4.268;2023-09-19T03:51:48;15.80;99.90
25482;DHT22;13395;50.752;4.268;2023-09-19T03:54:13;15.80;99.90
25482;DHT22;13395;50.752;4.268;2023-09-19T03:56:39;15.80;99.90
25482;DHT22;13395;50.752;4.268;2023-09-19T03:59:04;15.80;99.90
25482;DHT22;13395;50.752;4.268;2023-09-19T04:01:30;15.80;99.90
25482;DHT22;13395;50.752;4.268;2023-09-19T04:03:58;15.70;99.90
25482;DHT22;13395;50.752;4.268;2023-09-19T04:06:24;15.70;99.90
25482;DHT22;13395;50.752;4.268;2023-09-19T04:08:49;15.70;99.90
25482;DHT22;13395;50.752;4.268;2023-09-19T04:11:15;15.70;99.90
25482;DHT22;13395;50.752;4.268;2023-09-19T04:13:40;15.80;99.90
25482;DHT22;13395;50.752;4.268;2023-09-19T04:16:06;15.90;99.90
25482;DHT22;13395;50.752;4.268;2023-09-19T04:18:35;15.90;99.90
25482;DHT22;13395;50.752;4.268;2023-09-19T04:21:03;15.80;99.90
25482;DHT22;13395;50.752;4.268;2023-09-19T04:23:29;15.80;99.90
25482;DHT22;13395;50.752;4.268;2023-09-19T04:25:55;15.80;99.90
25482;DHT22;13395;50.752;4.268;2023-09-19T04:28:20;15.80;99.90
25482;DHT22;13395;50.752;4.268;2023-09-19T04:30:46;15.80;99.90
25482;DHT22;13395;50.752;4.268;2023-09-19T04:33:12;15.70;99.90
25482;DHT22;13395;50.752;4.268;2023-09-19T04:35:40;15.80;99.90
25482;DHT22;13395;50.752;4.268;2023-09-19T04:38:08;15.70;99.90
25482;DHT22;13395;50.752;4.268;2023-09-19T04:40:33;15.80;99.90
25482;DHT22;13395;50.752;4.268;2023-09-19T04:42:59;15.70;99.90
25482;DHT22;13395;50.752;4.268;2023-09-19T04:45:26;15.60;99.90
25482;DHT22;13395;50.752;4.268;2023-09-19T04:47:52;15.60;99.90
25482;DHT22;13395;50.752;4.268;2023-09-19T04:50:18;15.60;99.90
25482;DHT22;13395;50.752;4.268;2023-09-19T04:52:45;15.50;99.90
25482;DHT22;13395;50.752;4.268;2023-09-19T04:55:14;15.60;99.90
25482;DHT22;13395;50.752;4.268;2023-09-19T04:57:46;15.50;99.90
25482;DHT22;13395;50.752;4.268;2023-09-19T05:00:14;15.50;99.90
25482;DHT22;13395;50.752;4.268;2023-09-19T05:02:41;15.60;99.90
25482;DHT22;13395;50.752;4.268;2023-09-19T05:05:08;15.50;99.90
25482;DHT22;13395;50.752;4.268;2023-09-19T05:07:35;15.40;99.90
25482;DHT22;13395;50.752;4.268;2023-09-19T05:10:02;15.40;99.90
25482;DHT22;13395;50.752;4.268;2023-09-19T05:12:32;15.40;99.90
25482;DHT22;13395;50.752;4.268;2023-09-19T05:14:57;15.30;99.90
25482;DHT22;13395;50.752;4.268;2023-09-19T05:17:23;15.40;99.90
25482;DHT22;13395;50.752;4.268;2023-09-19T05:19:50;15.30;99.90
25482;DHT22;13395;50.752;4.268;2023-09-19T05:22:15;15.40;99.90
25482;DHT22;13395;50.752;4.268;2023-09-19T05:24:41;15.30;99.90
25482;DHT22;13395;50.752;4.268;2023-09-19T05:27:06;15.40;99.90
25482;DHT22;13395;50.752;4.268;2023-09-19T05:29:32;15.40;99.90
25482;DHT22;13395;50.752;4.268;2023-09-19T05:31:59;15.40;99.90
25482;DHT22;13395;50.752;4.268;2023-09-19T05:34:24;15.60;99.90
25482;DHT22;13395;50.752;4.268;2023-09-19T05:36:53;15.50;99.90
25482;DHT22;13395;50.752;4.268;2023-09-19T05:39:19;15.40;99.90
25482;DHT22;13395;50.752;4.268;2023-09-19T05:41:45;15.50;99.90
25482;DHT22;13395;50.752;4.268;2023-09-19T05:44:13;15.70;99.90
25482;DHT22;13395;50.752;4.268;2023-09-19T05:46:39;15.70;99.90
25482;DHT22;13395;50.752;4.268;2023-09-19T05:49:05;15.60;99.90
25482;DHT22;13395;50.752;4.268;2023-09-19T05:51:31;15.60;99.90
25482;DHT22;13395;50.752;4.268;2023-09-19T05:53:56;15.60;99.90
25482;DHT22;13395;50.752;4.268;2023-09-19T05:56:23;15.70;99.90
25482;DHT22;13395;50.752;4.268;2023-09-19T05:58:49;15.70;99.90
25482;DHT22;13395;50.752;4.268;2023-09-19T06:01:17;15.70;99.90
25482;DHT22;13395;50.752;4.268;2023-09-19T06:03:43;15.60;99.90
25482;DHT22;13395;50.752;4.268;2023-09-19T06:06:09;15.70;99.90
25482;DHT22;13395;50.752;4.268;2023-09-19T06:08:34;15.70;99.90
25482;DHT22;13395;50.752;4.268;2023-09-19T06:11:00;15.80;99.90
25482;DHT22;13395;50.752;4.268;2023-09-19T06:13:28;15.70;99.90
25482;DHT22;13395;50.752;4.268;2023-09-19T06:15:55;15.80;99.90
25482;DHT22;13395;50.752;4.268;2023-09-19T06:18:21;15.80;99.90
25482;DHT22;13395;50.752;4.268;2023-09-19T06:20:51;15.90;99.90
25482;DHT22;13395;50.752;4.268;2023-09-19T06:23:17;15.90;99.90
25482;DHT22;13395;50.752;4.268;2023-09-19T06:25:45;15.90;99.90
25482;DHT22;13395;50.752;4.268;2023-09-19T06:28:11;15.90;99.90
25482;DHT22;13395;50.752;4.268;2023-09-19T06:30:40;16.00;99.90
25482;DHT22;13395;50.752;4.268;2023-09-19T06:33:05;16.00;99.90
25482;DHT22;13395;50.752;4.268;2023-09-19T06:35:33;16.10;99.90
25482;DHT22;13395;50.752;4.268;2023-09-19T06:37:58;16.00;99.90
25482;DHT22;13395;50.752;4.268;2023-09-19T06:40:24;16.10;99.90
25482;DHT22;13395;50.752;4.268;2023-09-19T06:42:53;16.30;99.90
25482;DHT22;13395;50.752;4.268;2023-09-19T06:45:19;16.30;99.90
25482;DHT22;13395;50.752;4.268;2023-09-19T06:47:47;16.20;99.90
25482;DHT22;13395;50.752;4.268;2023-09-19T06:50:20;16.20;99.90
25482;DHT22;13395;50.752;4.268;2023-09-19T06:52:49;16.20;99.90
25482;DHT22;13395;50.752;4.268;2023-09-19T06:55:16;16.30;99.90
25482;DHT22;13395;50.752;4.268;2023-09-19T06:57:44;16.40;99.90
25482;DHT22;13395;50.752;4.268;2023-09-19T07:00:11;16.40;99.90
25482;DHT22;13395;50.752;4.268;2023-09-19T07:05:29;16.40;99.90
25482;DHT22;13395;50.752;4.268;2023-09-19T07:07:57;16.60;99.90
25482;DHT22;13395;50.752;4.268;2023-09-19T07:10:25;16.70;99.90
25482;DHT22;13395;50.752;4.268;2023-09-19T07:13:02;16.90;99.90
25482;DHT22;13395;50.752;4.268;2023-09-19T07:15:29;17.00;99.90
25482;DHT22;13395;50.752;4.268;2023-09-19T07:17:56;17.10;99.90
25482;DHT22;13395;50.752;4.268;2023-09-19T07:20:23;17.20;99.90
25482;DHT22;13395;50.752;4.268;2023-09-19T07:22:52;17.30;99.90
25482;DHT22;13395;50.752;4.268;2023-09-19T07:25:20;17.50;99.90
25482;DHT22;13395;50.752;4.268;2023-09-19T07:27:46;17.60;99.90
25482;DHT22;13395;50.752;4.268;2023-09-19T07:30:12;17.70;99.90
25482;DHT22;13395;50.752;4.268;2023-09-19T07:32:38;17.80;99.90
25482;DHT22;13395;50.752;4.268;2023-09-19T07:35:05;18.00;99.90
25482;DHT22;13395;50.752;4.268;2023-09-19T07:37:34;18.00;99.90
25482;DHT22;13395;50.752;4.268;2023-09-19T07:40:00;18.10;99.90
25482;DHT22;13395;50.752;4.268;2023-09-19T07:42:36;18.20;99.90
25482;DHT22;13395;50.752;4.268;2023-09-19T07:45:04;18.40;99.90
25482;DHT22;13395;50.752;4.268;2023-09-19T07:47:30;18.70;99.90
25482;DHT22;13395;50.752;4.268;2023-09-19T07:49:58;19.00;99.90
25482;DHT22;13395;50.752;4.268;2023-09-19T07:52:24;19.30;99.90
25482;DHT22;13395;50.752;4.268;2023-09-19T07:54:50;19.80;99.90
25482;DHT22;13395;50.752;4.268;2023-09-19T07:57:15;20.20;99.90
25482;DHT22;13395;50.752;4.268;2023-09-19T07:59:41;20.60;99.90
25482;DHT22;13395;50.752;4.268;2023-09-19T08:02:08;20.70;99.90
25482;DHT22;13395;50.752;4.268;2023-09-19T08:04:43;21.00;99.90
25482;DHT22;13395;50.752;4.268;2023-09-19T08:09:47;21.80;99.90
25482;DHT22;13395;50.752;4.268;2023-09-19T08:12:16;22.00;99.90
25482;DHT22;13395;50.752;4.268;2023-09-19T08:14:42;22.00;99.90
25482;DHT22;13395;50.752;4.268;2023-09-19T08:17:08;22.10;99.90
25482;DHT22;13395;50.752;4.268;2023-09-19T08:19:33;22.40;99.90
25482;DHT22;13395;50.752;4.268;2023-09-19T08:21:59;22.60;99.90
25482;DHT22;13395;50.752;4.268;2023-09-19T08:24:27;23.00;99.90
25482;DHT22;13395;50.752;4.268;2023-09-19T08:26:57;23.40;99.90
25482;DHT22;13395;50.752;4.268;2023-09-19T08:29:26;24.00;99.90
25482;DHT22;13395;50.752;4.268;2023-09-19T08:31:59;24.00;99.90
25482;DHT22;13395;50.752;4.268;2023-09-19T08:42:11;25.10;99.20
25482;DHT22;13395;50.752;4.268;2023-09-19T08:44:38;25.40;98.60
25482;DHT22;13395;50.752;4.268;2023-09-19T08:47:10;25.60;97.60
25482;DHT22;13395;50.752;4.268;2023-09-19T08:59:58;27.00;92.40
25482;DHT22;13395;50.752;4.268;2023-09-19T09:02:26;26.40;92.60
25482;DHT22;13395;50.752;4.268;2023-09-19T09:04:53;25.90;93.10
25482;DHT22;13395;50.752;4.268;2023-09-19T09:07:20;25.80;93.90
25482;DHT22;13395;50.752;4.268;2023-09-19T09:09:47;26.10;93.10
25482;DHT22;13395;50.752;4.268;2023-09-19T09:12:14;26.10;92.80
25482;DHT22;13395;50.752;4.268;2023-09-19T09:14:45;25.80;92.80
25482;DHT22;13395;50.752;4.268;2023-09-19T09:17:11;25.80;93.50
25482;DHT22;13395;50.752;4.268;2023-09-19T09:19:37;25.80;93.40
25482;DHT22;13395;50.752;4.268;2023-09-19T09:22:10;25.70;92.70
25482;DHT22;13395;50.752;4.268;2023-09-19T09:24:37;25.50;93.40
25482;DHT22;13395;50.752;4.268;2023-09-19T09:27:05;25.20;93.40
25482;DHT22;13395;50.752;4.268;2023-09-19T09:34:44;25.10;94.00
25482;DHT22;13395;50.752;4.268;2023-09-19T09:37:14;25.00;94.70
25482;DHT22;13395;50.752;4.268;2023-09-19T09:42:33;24.40;94.00
25482;DHT22;13395;50.752;4.268;2023-09-19T09:45:20;23.80;94.70
25482;DHT22;13395;50.752;4.268;2023-09-19T09:47:59;23.60;96.00
25482;DHT22;13395;50.752;4.268;2023-09-19T09:50:30;23.60;96.30
25482;DHT22;13395;50.752;4.268;2023-09-19T09:56:04;23.30;96.50
25482;DHT22;13395;50.752;4.268;2023-09-19T09:58:52;22.80;96.60
25482;DHT22;13395;50.752;4.268;2023-09-19T10:01:21;22.60;97.90
25482;DHT22;13395;50.752;4.268;2023-09-19T10:03:57;22.60;99.30
25482;DHT22;13395;50.752;4.268;2023-09-19T10:06:23;22.80;98.20
25482;DHT22;13395;50.752;4.268;2023-09-19T10:09:01;23.00;98.00
25482;DHT22;13395;50.752;4.268;2023-09-19T10:12:05;23.00;97.60
25482;DHT22;13395;50.752;4.268;2023-09-19T10:14:35;23.20;97.90
25482;DHT22;13395;50.752;4.268;2023-09-19T10:17:05;23.60;97.90
25482;DHT22;13395;50.752;4.268;2023-09-19T10:19:43;24.20;97.10
25482;DHT22;13395;50.752;4.268;2023-09-19T10:22:12;24.40;95.80
25482;DHT22;13395;50.752;4.268;2023-09-19T10:24:47;24.80;95.90
25482;DHT22;13395;50.752;4.268;2023-09-19T10:27:16;25.40;94.90
25482;DHT22;13395;50.752;4.268;2023-09-19T10:29:51;25.80;93.30
25482;DHT22;13395;50.752;4.268;2023-09-19T10:32:19;25.80;93.30
25482;DHT22;13395;50.752;4.268;2023-09-19T10:34:50;26.40;93.00
25482;DHT22;13395;50.752;4.268;2023-09-19T10:37:16;27.20;92.80
25482;DHT22;13395;50.752;4.268;2023-09-19T10:39:46;27.40;90.70
25482;DHT22;13395;50.752;4.268;2023-09-19T10:42:14;27.60;89.80
25482;DHT22;13395;50.752;4.268;2023-09-19T10:44:42;27.10;90.20
25482;DHT22;13395;50.752;4.268;2023-09-19T10:47:10;26.90;91.10
25482;DHT22;13395;50.752;4.268;2023-09-19T10:49:46;26.70;90.70
25482;DHT22;13395;50.752;4.268;2023-09-19T10:52:17;27.10;90.60
25482;DHT22;13395;50.752;4.268;2023-09-19T10:54:50;27.40;89.30
25482;DHT22;13395;50.752;4.268;2023-09-19T10:57:21;27.10;90.10
25482;DHT22;13395;50.752;4.268;2023-09-19T11:00:03;27.60;91.20
25482;DHT22;13395;50.752;4.268;2023-09-19T11:05:37;28.40;87.40
25482;DHT22;13395;50.752;4.268;2023-09-19T11:08:07;28.50;89.40
25482;DHT22;13395;50.752;4.268;2023-09-19T11:10:53;28.80;87.50
25482;DHT22;13395;50.752;4.268;2023-09-19T11:13:31;28.60;84.90
25482;DHT22;13395;50.752;4.268;2023-09-19T11:26:50;29.10;81.90
25482;DHT22;13395;50.752;4.268;2023-09-19T11:29:27;28.60;83.70
25482;DHT22;13395;50.752;4.268;2023-09-19T11:31:54;28.00;84.80
25482;DHT22;13395;50.752;4.268;2023-09-19T11:42:45;26.80;88.40
25482;DHT22;13395;50.752;4.268;2023-09-19T11:48:23;25.70;90.70
25482;DHT22;13395;50.752;4.268;2023-09-19T11:50:51;25.10;92.40
25482;DHT22;13395;50.752;4.268;2023-09-19T11:53:18;24.70;92.10
25482;DHT22;13395;50.752;4.268;2023-09-19T11:55:45;24.30;92.70
25482;DHT22;13395;50.752;4.268;2023-09-19T11:58:12;23.80;93.70
25482;DHT22;13395;50.752;4.268;2023-09-19T12:00:39;23.60;94.40
25482;DHT22;13395;50.752;4.268;2023-09-19T12:03:11;23.70;95.50
25482;DHT22;13395;50.752;4.268;2023-09-19T12:05:37;23.60;95.90
25482;DHT22;13395;50.752;4.268;2023-09-19T12:08:04;23.50;95.40
25482;DHT22;13395;50.752;4.268;2023-09-19T12:10:33;23.30;95.50
25482;DHT22;13395;50.752;4.268;2023-09-19T12:12:59;23.10;96.00
25482;DHT22;13395;50.752;4.268;2023-09-19T12:15:28;22.80;96.40
25482;DHT22;13395;50.752;4.268;2023-09-19T12:17:59;22.70;97.10
25482;DHT22;13395;50.752;4.268;2023-09-19T12:20:25;22.70;97.80
25482;DHT22;13395;50.752;4.268;2023-09-19T12:22:50;22.90;97.40
25482;DHT22;13395;50.752;4.268;2023-09-19T12:25:16;23.10;97.30
25482;DHT22;13395;50.752;4.268;2023-09-19T12:27:44;23.70;97.00
25482;DHT22;13395;50.752;4.268;2023-09-19T12:30:12;23.80;96.70
25482;DHT22;13395;50.752;4.268;2023-09-19T12:32:43;24.10;95.60
25482;DHT22;13395;50.752;4.268;2023-09-19T12:35:09;23.70;95.50
25482;DHT22;13395;50.752;4.268;2023-09-19T12:37:44;23.30;96.40
25482;DHT22;13395;50.752;4.268;2023-09-19T12:40:19;23.20;97.10
25482;DHT22;13395;50.752;4.268;2023-09-19T12:42:50;23.20;97.50
25482;DHT22;13395;50.752;4.268;2023-09-19T12:45:19;23.20;98.40
25482;DHT22;13395;50.752;4.268;2023-09-19T12:51:06;22.90;98.40
25482;DHT22;13395;50.752;4.268;2023-09-19T12:53:34;22.90;99.00
25482;DHT22;13395;50.752;4.268;2023-09-19T12:56:03;22.80;98.40
25482;DHT22;13395;50.752;4.268;2023-09-19T12:58:34;22.70;98.90
25482;DHT22;13395;50.752;4.268;2023-09-19T13:01:00;22.60;99.30
25482;DHT22;13395;50.752;4.268;2023-09-19T13:03:28;22.50;99.40
25482;DHT22;13395;50.752;4.268;2023-09-19T13:08:24;22.10;99.80
25482;DHT22;13395;50.752;4.268;2023-09-19T13:11:12;22.20;99.70
25482;DHT22;13395;50.752;4.268;2023-09-19T13:13:50;22.20;99.90
25482;DHT22;13395;50.752;4.268;2023-09-19T13:16:20;22.20;99.90
25482;DHT22;13395;50.752;4.268;2023-09-19T13:18:53;22.20;99.90
25482;DHT22;13395;50.752;4.268;2023-09-19T13:21:33;22.30;99.90
25482;DHT22;13395;50.752;4.268;2023-09-19T13:24:22;22.40;99.90
25482;DHT22;13395;50.752;4.268;2023-09-19T13:26:56;22.50;99.90
25482;DHT22;13395;50.752;4.268;2023-09-19T13:29:22;22.50;99.90
25482;DHT22;13395;50.752;4.268;2023-09-19T13:31:49;22.50;99.90
25482;DHT22;13395;50.752;4.268;2023-09-19T13:34:15;22.40;99.90
25482;DHT22;13395;50.752;4.268;2023-09-19T13:36:43;22.50;99.90
25482;DHT22;13395;50.752;4.268;2023-09-19T13:39:08;22.60;99.90
25482;DHT22;13395;50.752;4.268;2023-09-19T13:41:35;22.80;99.90
25482;DHT22;13395;50.752;4.268;2023-09-19T13:44:02;23.00;99.80
25482;DHT22;13395;50.752;4.268;2023-09-19T13:51:39;23.40;99.90
25482;DHT22;13395;50.752;4.268;2023-09-19T13:56:44;23.90;99.50
25482;DHT22;13395;50.752;4.268;2023-09-19T13:59:10;23.80;99.30
25482;DHT22;13395;50.752;4.268;2023-09-19T14:01:35;23.70;99.30
25482;DHT22;13395;50.752;4.268;2023-09-19T14:04:01;23.60;98.10
25482;DHT22;13395;50.752;4.268;2023-09-19T14:06:27;23.30;99.00
25482;DHT22;13395;50.752;4.268;2023-09-19T14:08:53;22.80;99.30
25482;DHT22;13395;50.752;4.268;2023-09-19T14:11:19;22.60;99.90
25482;DHT22;13395;50.752;4.268;2023-09-19T14:13:45;22.60;99.90
25482;DHT22;13395;50.752;4.268;2023-09-19T14:16:13;22.50;99.90
25482;DHT22;13395;50.752;4.268;2023-09-19T14:18:39;22.50;99.90
25482;DHT22;13395;50.752;4.268;2023-09-19T14:21:06;22.40;99.90
25482;DHT22;13395;50.752;4.268;2023-09-19T14:23:35;22.50;99.90
25482;DHT22;13395;50.752;4.268;2023-09-19T14:26:01;22.60;99.90
25482;DHT22;13395;50.752;4.268;2023-09-19T14:28:27;22.80;99.90
25482;DHT22;13395;50.752;4.268;2023-09-19T14:30:55;22.90;99.90
25482;DHT22;13395;50.752;4.268;2023-09-19T14:33:20;23.00;99.90
25482;DHT22;13395;50.752;4.268;2023-09-19T14:35:46;23.00;99.90
25482;DHT22;13395;50.752;4.268;2023-09-19T14:38:11;23.00;99.90
25482;DHT22;13395;50.752;4.268;2023-09-19T14:40:37;23.00;99.90
25482;DHT22;13395;50.752;4.268;2023-09-19T14:43:04;23.00;99.90
25482;DHT22;13395;50.752;4.268;2023-09-19T14:45:30;23.10;99.90
25482;DHT22;13395;50.752;4.268;2023-09-19T14:47:56;22.90;99.90
25482;DHT22;13395;50.752;4.268;2023-09-19T14:50:22;22.80;99.90
25482;DHT22;13395;50.752;4.268;2023-09-19T14:52:48;22.70;99.90
25482;DHT22;13395;50.752;4.268;2023-09-19T14:55:17;22.60;99.90
25482;DHT22;13395;50.752;4.268;2023-09-19T14:57:42;22.50;99.90
25482;DHT22;13395;50.752;4.268;2023-09-19T15:00:12;22.30;99.90
25482;DHT22;13395;50.752;4.268;2023-09-19T15:02:39;22.20;99.90
25482;DHT22;13395;50.752;4.268;2023-09-19T15:05:07;22.10;99.90
25482;DHT22;13395;50.752;4.268;2023-09-19T15:07:35;21.90;99.90
25482;DHT22;13395;50.752;4.268;2023-09-19T15:10:03;21.90;99.90
25482;DHT22;13395;50.752;4.268;2023-09-19T15:12:28;21.80;99.90
25482;DHT22;13395;50.752;4.268;2023-09-19T15:14:54;21.70;99.90
25482;DHT22;13395;50.752;4.268;2023-09-19T15:17:20;21.50;99.90
25482;DHT22;13395;50.752;4.268;2023-09-19T15:19:46;21.50;99.90
25482;DHT22;13395;50.752;4.268;2023-09-19T15:22:11;21.50;99.90
25482;DHT22;13395;50.752;4.268;2023-09-19T15:24:38;21.50;99.90
25482;DHT22;13395;50.752;4.268;2023-09-19T15:27:04;21.40;99.90
25482;DHT22;13395;50.752;4.268;2023-09-19T15:29:29;21.40;99.90
25482;DHT22;13395;50.752;4.268;2023-09-19T15:31:55;21.30;99.90
25482;DHT22;13395;50.752;4.268;2023-09-19T15:34:24;21.20;99.90
25482;DHT22;13395;50.752;4.268;2023-09-19T15:36:50;21.20;99.90
25482;DHT22;13395;50.752;4.268;2023-09-19T15:39:16;21.20;99.90
25482;DHT22;13395;50.752;4.268;2023-09-19T15:41:45;21.30;99.90
25482;DHT22;13395;50.752;4.268;2023-09-19T15:44:13;21.30;99.90
25482;DHT22;13395;50.752;4.268;2023-09-19T15:46:39;21.30;99.90
25482;DHT22;13395;50.752;4.268;2023-09-19T15:49:04;21.20;99.90
25482;DHT22;13395;50.752;4.268;2023-09-19T15:51:30;21.20;99.90
25482;DHT22;13395;50.752;4.268;2023-09-19T15:53:56;21.30;99.90
25482;DHT22;13395;50.752;4.268;2023-09-19T15:56:23;21.20;99.90
25482;DHT22;13395;50.752;4.268;2023-09-19T15:58:53;21.20;99.90
25482;DHT22;13395;50.752;4.268;2023-09-19T16:01:19;21.30;99.90
25482;DHT22;13395;50.752;4.268;2023-09-19T16:03:50;21.30;99.90
25482;DHT22;13395;50.752;4.268;2023-09-19T16:06:23;21.20;99.90
25482;DHT22;13395;50.752;4.268;2023-09-19T16:08:50;21.20;99.90
25482;DHT22;13395;50.752;4.268;2023-09-19T16:11:17;21.30;99.90
25482;DHT22;13395;50.752;4.268;2023-09-19T16:13:44;21.20;99.90
25482;DHT22;13395;50.752;4.268;2023-09-19T16:16:12;21.20;99.90
25482;DHT22;13395;50.752;4.268;2023-09-19T16:18:54;21.10;99.90
25482;DHT22;13395;50.752;4.268;2023-09-19T16:21:29;21.10;99.90
25482;DHT22;13395;50.752;4.268;2023-09-19T16:23:57;21.10;99.90
25482;DHT22;13395;50.752;4.268;2023-09-19T16:26:24;21.00;99.90
25482;DHT22;13395;50.752;4.268;2023-09-19T16:28:51;21.00;99.90
25482;DHT22;13395;50.752;4.268;2023-09-19T16:31:17;21.00;99.90
25482;DHT22;13395;50.752;4.268;2023-09-19T16:33:45;20.90;99.90
25482;DHT22;13395;50.752;4.268;2023-09-19T16:36:18;20.80;99.90
25482;DHT22;13395;50.752;4.268;2023-09-19T16:38:46;20.80;99.90
25482;DHT22;13395;50.752;4.268;2023-09-19T16:41:14;20.70;99.90
25482;DHT22;13395;50.752;4.268;2023-09-19T16:43:40;20.60;99.90
25482;DHT22;13395;50.752;4.268;2023-09-19T16:46:08;20.60;99.90
25482;DHT22;13395;50.752;4.268;2023-09-19T16:48:34;20.60;99.90
25482;DHT22;13395;50.752;4.268;2023-09-19T16:51:02;20.70;99.90
25482;DHT22;13395;50.752;4.268;2023-09-19T16:53:29;20.70;99.90
25482;DHT22;13395;50.752;4.268;2023-09-19T16:56:00;20.60;99.90
25482;DHT22;13395;50.752;4.268;2023-09-19T16:58:25;20.60;99.90
25482;DHT22;13395;50.752;4.268;2023-09-19T17:00:51;20.60;99.90
25482;DHT22;13395;50.752;4.268;2023-09-19T17:03:16;20.60;99.90
25482;DHT22;13395;50.752;4.268;2023-09-19T17:05:42;20.60;99.90
25482;DHT22;13395;50.752;4.268;2023-09-19T17:08:09;20.50;99.90